Terminal Aerodrome Forecast
Issued by NWS

Home | Current Version | Previous Version | Text Only | Print | Product List | Glossary On
Versions: 1 2 3 4 5 6 7 8 9 10 11 12 13 14 15 16 17 18 19
000
FTUS42 TJSJ 201700
TAFJSJ
TAF
TJSJ 201728Z 2018/2118 06015G22KT P6SM VCSH FEW025 SCT040
     FM210000 11007KT P6SM SCT030 BKN120
     FM211400 07012G18KT P6SM SCT025
      AMD NOT SKED 2023/2111=

USA.gov is the U.S. government's official web portal to all federal, state and local government web resources and services.